sensor_id;sensor_type;location;lat;lon;timestamp;pressure;altitude;pressure_sealevel;temperature;humidity
6464;BME280;3265;42.694;23.282;2023-02-16T00:01:15;95862.47;;;0.88;96.89
6464;BME280;3265;42.694;23.282;2023-02-16T00:03:42;95844.50;;;0.69;97.26
6464;BME280;3265;42.694;23.282;2023-02-16T00:06:09;95860.00;;;0.77;96.69
6464;BME280;3265;42.694;23.282;2023-02-16T00:08:41;95846.09;;;0.70;96.99
6464;BME280;3265;42.694;23.282;2023-02-16T00:11:17;95851.66;;;0.75;97.25
6464;BME280;3265;42.694;23.282;2023-02-16T00:14:03;95826.31;;;0.62;96.94
6464;BME280;3265;42.694;23.282;2023-02-16T00:16:33;95835.47;;;0.65;97.06
6464;BME280;3265;42.694;23.282;2023-02-16T00:19:01;95860.53;;;0.71;97.13
6464;BME280;3265;42.694;23.282;2023-02-16T00:21:28;95844.44;;;0.59;98.05
6464;BME280;3265;42.694;23.282;2023-02-16T00:23:54;95862.25;;;0.61;97.85
6464;BME280;3265;42.694;23.282;2023-02-16T00:26:24;95854.00;;;0.57;98.27
6464;BME280;3265;42.694;23.282;2023-02-16T00:28:52;95856.44;;;0.58;98.02
6464;BME280;3265;42.694;23.282;2023-02-16T00:31:23;95855.50;;;0.60;98.42
6464;BME280;3265;42.694;23.282;2023-02-16T00:33:51;95851.81;;;0.52;97.86
6464;BME280;3265;42.694;23.282;2023-02-16T00:36:18;95849.00;;;0.55;97.31
6464;BME280;3265;42.694;23.282;2023-02-16T00:38:45;95845.34;;;0.48;97.87
6464;BME280;3265;42.694;23.282;2023-02-16T00:41:21;95838.91;;;0.54;97.90
6464;BME280;3265;42.694;23.282;2023-02-16T00:44:12;95855.69;;;0.47;97.70
6464;BME280;3265;42.694;23.282;2023-02-16T00:46:40;95839.38;;;0.38;98.61
6464;BME280;3265;42.694;23.282;2023-02-16T00:49:12;95852.72;;;0.42;99.02
6464;BME280;3265;42.694;23.282;2023-02-16T00:51:40;95845.97;;;0.41;99.52
6464;BME280;3265;42.694;23.282;2023-02-16T00:54:07;95845.97;;;0.41;98.86
6464;BME280;3265;42.694;23.282;2023-02-16T00:56:35;95833.94;;;0.32;98.63
6464;BME280;3265;42.694;23.282;2023-02-16T00:59:03;95844.38;;;0.40;99.09
6464;BME280;3265;42.694;23.282;2023-02-16T01:01:34;95849.34;;;0.41;98.58
6464;BME280;3265;42.694;23.282;2023-02-16T01:04:04;95842.63;;;0.40;99.07
6464;BME280;3265;42.694;23.282;2023-02-16T01:06:35;95843.63;;;0.49;98.49
6464;BME280;3265;42.694;23.282;2023-02-16T01:09:27;95843.03;;;0.45;98.63
6464;BME280;3265;42.694;23.282;2023-02-16T01:12:14;95842.09;;;0.46;99.28
6464;BME280;3265;42.694;23.282;2023-02-16T01:14:44;95845.44;;;0.37;99.55
6464;BME280;3265;42.694;23.282;2023-02-16T01:17:14;95805.47;;;0.16;99.28
6464;BME280;3265;42.694;23.282;2023-02-16T01:19:41;95841.75;;;0.30;99.56
6464;BME280;3265;42.694;23.282;2023-02-16T01:22:07;95818.16;;;0.17;99.67
6464;BME280;3265;42.694;23.282;2023-02-16T01:24:34;95833.50;;;0.27;99.81
6464;BME280;3265;42.694;23.282;2023-02-16T01:27:01;95809.66;;;0.17;98.98
6464;BME280;3265;42.694;23.282;2023-02-16T01:29:28;95825.84;;;0.27;99.44
6464;BME280;3265;42.694;23.282;2023-02-16T01:31:55;95806.13;;;0.08;99.45
6464;BME280;3265;42.694;23.282;2023-02-16T01:34:23;95784.13;;;-0.04;99.21
6464;BME280;3265;42.694;23.282;2023-02-16T01:36:50;95815.19;;;0.22;99.56
6464;BME280;3265;42.694;23.282;2023-02-16T01:39:19;95813.81;;;0.18;100.00
6464;BME280;3265;42.694;23.282;2023-02-16T01:42:17;95811.22;;;0.08;100.00
6464;BME280;3265;42.694;23.282;2023-02-16T01:44:49;95815.53;;;0.08;100.00
6464;BME280;3265;42.694;23.282;2023-02-16T01:47:33;95801.94;;;0.07;100.00
6464;BME280;3265;42.694;23.282;2023-02-16T01:50:14;95808.41;;;0.11;99.70
6464;BME280;3265;42.694;23.282;2023-02-16T01:52:43;95783.06;;;-0.02;99.80
6464;BME280;3265;42.694;23.282;2023-02-16T01:55:17;95804.81;;;0.14;99.40
6464;BME280;3265;42.694;23.282;2023-02-16T01:57:48;95808.84;;;0.16;98.76
6464;BME280;3265;42.694;23.282;2023-02-16T02:00:23;95801.13;;;0.07;98.72
6464;BME280;3265;42.694;23.282;2023-02-16T02:02:53;95807.53;;;0.01;99.02
6464;BME280;3265;42.694;23.282;2023-02-16T02:05:44;95762.06;;;-0.26;98.81
6464;BME280;3265;42.694;23.282;2023-02-16T02:08:20;95783.25;;;-0.14;98.59
6464;BME280;3265;42.694;23.282;2023-02-16T02:10:57;95792.22;;;-0.20;99.50
6464;BME280;3265;42.694;23.282;2023-02-16T02:13:29;95811.09;;;-0.11;100.00
6464;BME280;3265;42.694;23.282;2023-02-16T02:15:58;95802.63;;;-0.12;100.00
6464;BME280;3265;42.694;23.282;2023-02-16T02:18:26;95802.81;;;-0.04;99.92
6464;BME280;3265;42.694;23.282;2023-02-16T02:21:08;95794.03;;;-0.11;100.00
6464;BME280;3265;42.694;23.282;2023-02-16T02:24:27;95794.59;;;-0.07;99.08
6464;BME280;3265;42.694;23.282;2023-02-16T02:27:12;95788.56;;;-0.06;98.97
6464;BME280;3265;42.694;23.282;2023-02-16T02:32:39;95789.72;;;-0.10;98.30
6464;BME280;3265;42.694;23.282;2023-02-16T02:35:24;95789.28;;;-0.15;98.90
6464;BME280;3265;42.694;23.282;2023-02-16T02:37:57;95789.66;;;-0.20;99.20
6464;BME280;3265;42.694;23.282;2023-02-16T02:40:33;95795.47;;;-0.18;99.25
6464;BME280;3265;42.694;23.282;2023-02-16T02:43:10;95788.97;;;-0.22;98.78
6464;BME280;3265;42.694;23.282;2023-02-16T02:45:42;95795.88;;;-0.33;99.20
6464;BME280;3265;42.694;23.282;2023-02-16T02:48:11;95793.97;;;-0.41;100.00
6464;BME280;3265;42.694;23.282;2023-02-16T02:50:41;95784.66;;;-0.42;99.87
6464;BME280;3265;42.694;23.282;2023-02-16T02:53:34;95793.56;;;-0.36;100.00
6464;BME280;3265;42.694;23.282;2023-02-16T02:56:04;95794.63;;;-0.39;100.00
6464;BME280;3265;42.694;23.282;2023-02-16T02:58:55;95795.38;;;-0.48;100.00
6464;BME280;3265;42.694;23.282;2023-02-16T03:01:45;95806.25;;;-0.46;100.00
6464;BME280;3265;42.694;23.282;2023-02-16T03:04:16;95802.84;;;-0.56;100.00
6464;BME280;3265;42.694;23.282;2023-02-16T03:06:48;95801.28;;;-0.47;100.00
6464;BME280;3265;42.694;23.282;2023-02-16T03:09:17;95806.81;;;-0.42;99.92
6464;BME280;3265;42.694;23.282;2023-02-16T03:11:45;95801.66;;;-0.52;100.00
6464;BME280;3265;42.694;23.282;2023-02-16T03:14:35;95807.25;;;-0.58;100.00
6464;BME280;3265;42.694;23.282;2023-02-16T03:17:06;95795.53;;;-0.61;100.00
6464;BME280;3265;42.694;23.282;2023-02-16T03:19:51;95801.44;;;-0.60;100.00
6464;BME280;3265;42.694;23.282;2023-02-16T03:22:36;95790.69;;;-0.64;100.00
6464;BME280;3265;42.694;23.282;2023-02-16T03:25:23;95797.97;;;-0.59;100.00
6464;BME280;3265;42.694;23.282;2023-02-16T03:28:10;95789.75;;;-0.63;100.00
6464;BME280;3265;42.694;23.282;2023-02-16T03:30:58;95797.28;;;-0.61;100.00
6464;BME280;3265;42.694;23.282;2023-02-16T03:33:27;95787.31;;;-0.64;100.00
6464;BME280;3265;42.694;23.282;2023-02-16T03:35:55;95790.41;;;-0.61;100.00
6464;BME280;3265;42.694;23.282;2023-02-16T03:38:23;95789.75;;;-0.63;100.00
6464;BME280;3265;42.694;23.282;2023-02-16T03:40:51;95780.38;;;-0.73;100.00
6464;BME280;3265;42.694;23.282;2023-02-16T03:43:18;95790.69;;;-0.75;100.00
6464;BME280;3265;42.694;23.282;2023-02-16T03:45:45;95773.91;;;-0.77;100.00
6464;BME280;3265;42.694;23.282;2023-02-16T03:48:13;95783.19;;;-0.76;100.00
6464;BME280;3265;42.694;23.282;2023-02-16T03:50:40;95788.97;;;-0.74;100.00
6464;BME280;3265;42.694;23.282;2023-02-16T03:53:06;95767.53;;;-0.83;100.00
6464;BME280;3265;42.694;23.282;2023-02-16T03:55:34;95795.94;;;-0.76;100.00
6464;BME280;3265;42.694;23.282;2023-02-16T03:58:02;95786.34;;;-0.84;100.00
6464;BME280;3265;42.694;23.282;2023-02-16T04:00:29;95791.78;;;-0.88;100.00
6464;BME280;3265;42.694;23.282;2023-02-16T04:02:56;95784.03;;;-0.98;100.00
6464;BME280;3265;42.694;23.282;2023-02-16T04:05:24;95789.81;;;-0.85;100.00
6464;BME280;3265;42.694;23.282;2023-02-16T04:07:51;95779.81;;;-0.77;100.00
6464;BME280;3265;42.694;23.282;2023-02-16T04:10:18;95784.28;;;-0.69;100.00
6464;BME280;3265;42.694;23.282;2023-02-16T04:12:45;95774.22;;;-0.71;100.00
6464;BME280;3265;42.694;23.282;2023-02-16T04:15:13;95776.69;;;-0.80;100.00
6464;BME280;3265;42.694;23.282;2023-02-16T04:17:40;95782.03;;;-0.83;100.00
6464;BME280;3265;42.694;23.282;2023-02-16T04:20:09;95779.84;;;-0.88;100.00
6464;BME280;3265;42.694;23.282;2023-02-16T04:22:38;95788.09;;;-0.84;100.00
6464;BME280;3265;42.694;23.282;2023-02-16T04:25:06;95771.97;;;-0.85;100.00
6464;BME280;3265;42.694;23.282;2023-02-16T04:27:35;95769.03;;;-0.80;100.00
6464;BME280;3265;42.694;23.282;2023-02-16T04:30:03;95777.63;;;-0.81;100.00
6464;BME280;3265;42.694;23.282;2023-02-16T04:32:31;95771.81;;;-0.83;100.00
6464;BME280;3265;42.694;23.282;2023-02-16T04:34:58;95768.34;;;-0.82;100.00
6464;BME280;3265;42.694;23.282;2023-02-16T04:37:25;95776.25;;;-0.85;100.00
6464;BME280;3265;42.694;23.282;2023-02-16T04:39:53;95754.97;;;-0.95;100.00
6464;BME280;3265;42.694;23.282;2023-02-16T04:42:20;95781.59;;;-0.88;100.00
6464;BME280;3265;42.694;23.282;2023-02-16T04:44:47;95786.59;;;-0.87;100.00
6464;BME280;3265;42.694;23.282;2023-02-16T04:47:14;95781.34;;;-0.85;100.00
6464;BME280;3265;42.694;23.282;2023-02-16T04:49:41;95787.50;;;-0.88;100.00
6464;BME280;3265;42.694;23.282;2023-02-16T04:52:08;95786.13;;;-0.92;100.00
6464;BME280;3265;42.694;23.282;2023-02-16T04:54:35;95778.06;;;-1.08;100.00
6464;BME280;3265;42.694;23.282;2023-02-16T04:57:03;95780.38;;;-1.05;100.00
6464;BME280;3265;42.694;23.282;2023-02-16T04:59:30;95778.16;;;-1.09;100.00
6464;BME280;3265;42.694;23.282;2023-02-16T05:01:57;95769.47;;;-1.18;100.00
6464;BME280;3265;42.694;23.282;2023-02-16T05:04:24;95790.56;;;-1.05;100.00
6464;BME280;3265;42.694;23.282;2023-02-16T05:06:51;95776.78;;;-1.13;100.00
6464;BME280;3265;42.694;23.282;2023-02-16T05:09:18;95767.53;;;-1.26;100.00
6464;BME280;3265;42.694;23.282;2023-02-16T05:11:45;95798.44;;;-1.08;100.00
6464;BME280;3265;42.694;23.282;2023-02-16T05:14:32;95802.88;;;-1.10;100.00
6464;BME280;3265;42.694;23.282;2023-02-16T05:17:11;95798.25;;;-1.16;100.00
6464;BME280;3265;42.694;23.282;2023-02-16T05:19:38;95800.53;;;-1.02;100.00
6464;BME280;3265;42.694;23.282;2023-02-16T05:22:06;95799.38;;;-1.09;100.00
6464;BME280;3265;42.694;23.282;2023-02-16T05:24:33;95803.44;;;-0.95;100.00
6464;BME280;3265;42.694;23.282;2023-02-16T05:27:00;95803.75;;;-1.00;100.00
6464;BME280;3265;42.694;23.282;2023-02-16T05:29:27;95793.47;;;-1.21;100.00
6464;BME280;3265;42.694;23.282;2023-02-16T05:31:56;95794.63;;;-1.13;100.00
6464;BME280;3265;42.694;23.282;2023-02-16T05:34:23;95818.50;;;-1.03;100.00
6464;BME280;3265;42.694;23.282;2023-02-16T05:36:50;95803.88;;;-1.13;100.00
6464;BME280;3265;42.694;23.282;2023-02-16T05:39:18;95809.56;;;-1.09;100.00
6464;BME280;3265;42.694;23.282;2023-02-16T05:41:45;95815.13;;;-1.15;100.00
6464;BME280;3265;42.694;23.282;2023-02-16T05:44:12;95799.28;;;-1.30;100.00
6464;BME280;3265;42.694;23.282;2023-02-16T05:46:39;95818.16;;;-1.21;100.00
6464;BME280;3265;42.694;23.282;2023-02-16T05:49:08;95823.03;;;-1.18;100.00
6464;BME280;3265;42.694;23.282;2023-02-16T05:51:36;95821.88;;;-1.14;100.00
6464;BME280;3265;42.694;23.282;2023-02-16T05:54:03;95802.53;;;-1.17;100.00
6464;BME280;3265;42.694;23.282;2023-02-16T05:56:30;95814.34;;;-1.04;100.00
6464;BME280;3265;42.694;23.282;2023-02-16T05:58:58;95821.97;;;-1.04;100.00
6464;BME280;3265;42.694;23.282;2023-02-16T06:01:33;95783.66;;;-1.36;100.00
6464;BME280;3265;42.694;23.282;2023-02-16T06:04:00;95830.56;;;-1.05;100.00
6464;BME280;3265;42.694;23.282;2023-02-16T06:06:31;95820.81;;;-1.11;100.00
6464;BME280;3265;42.694;23.282;2023-02-16T06:08:58;95839.13;;;-1.06;100.00
6464;BME280;3265;42.694;23.282;2023-02-16T06:11:29;95816.41;;;-1.21;100.00
6464;BME280;3265;42.694;23.282;2023-02-16T06:14:02;95833.25;;;-1.07;100.00
6464;BME280;3265;42.694;23.282;2023-02-16T06:16:30;95828.03;;;-1.17;100.00
6464;BME280;3265;42.694;23.282;2023-02-16T06:18:58;95790.03;;;-1.31;100.00
6464;BME280;3265;42.694;23.282;2023-02-16T06:21:25;95849.84;;;-0.81;100.00
6464;BME280;3265;42.694;23.282;2023-02-16T06:23:54;95827.97;;;-0.94;100.00
6464;BME280;3265;42.694;23.282;2023-02-16T06:26:20;95857.41;;;-0.79;100.00
6464;BME280;3265;42.694;23.282;2023-02-16T06:28:47;95836.91;;;-0.89;100.00
6464;BME280;3265;42.694;23.282;2023-02-16T06:31:14;95850.34;;;-0.76;100.00
6464;BME280;3265;42.694;23.282;2023-02-16T06:33:42;95859.47;;;-0.62;100.00
6464;BME280;3265;42.694;23.282;2023-02-16T06:36:09;95849.81;;;-0.59;100.00
6464;BME280;3265;42.694;23.282;2023-02-16T06:38:36;95799.81;;;-0.93;100.00
6464;BME280;3265;42.694;23.282;2023-02-16T06:41:05;95811.81;;;-0.73;100.00
6464;BME280;3265;42.694;23.282;2023-02-16T06:43:32;95839.81;;;-0.50;100.00
6464;BME280;3265;42.694;23.282;2023-02-16T06:46:00;95819.78;;;-0.66;100.00
6464;BME280;3265;42.694;23.282;2023-02-16T06:48:27;95829.47;;;-0.49;100.00
6464;BME280;3265;42.694;23.282;2023-02-16T06:50:54;95847.44;;;-0.39;100.00
6464;BME280;3265;42.694;23.282;2023-02-16T06:53:21;95865.03;;;-0.25;100.00
6464;BME280;3265;42.694;23.282;2023-02-16T06:55:50;95815.91;;;-0.49;100.00
6464;BME280;3265;42.694;23.282;2023-02-16T06:58:18;95861.50;;;-0.13;100.00
6464;BME280;3265;42.694;23.282;2023-02-16T07:00:45;95851.41;;;-0.15;100.00
6464;BME280;3265;42.694;23.282;2023-02-16T07:03:12;95842.56;;;-0.11;100.00
6464;BME280;3265;42.694;23.282;2023-02-16T07:05:39;95851.41;;;0.06;100.00
6464;BME280;3265;42.694;23.282;2023-02-16T07:08:08;95844.44;;;0.08;100.00
6464;BME280;3265;42.694;23.282;2023-02-16T07:10:35;95855.16;;;0.23;100.00
6464;BME280;3265;42.694;23.282;2023-02-16T07:13:02;95848.84;;;0.27;100.00
6464;BME280;3265;42.694;23.282;2023-02-16T07:15:30;95839.00;;;0.22;100.00
6464;BME280;3265;42.694;23.282;2023-02-16T07:17:58;95845.38;;;0.28;100.00
6464;BME280;3265;42.694;23.282;2023-02-16T07:20:24;95833.66;;;0.25;100.00
6464;BME280;3265;42.694;23.282;2023-02-16T07:22:52;95839.00;;;0.43;100.00
6464;BME280;3265;42.694;23.282;2023-02-16T07:25:23;95836.19;;;0.46;100.00
6464;BME280;3265;42.694;23.282;2023-02-16T07:27:50;95842.34;;;0.43;100.00
6464;BME280;3265;42.694;23.282;2023-02-16T07:30:19;95800.44;;;0.25;100.00
6464;BME280;3265;42.694;23.282;2023-02-16T07:32:51;95836.06;;;0.47;100.00
6464;BME280;3265;42.694;23.282;2023-02-16T07:35:18;95838.78;;;0.55;100.00
6464;BME280;3265;42.694;23.282;2023-02-16T07:37:46;95830.53;;;0.52;100.00
6464;BME280;3265;42.694;23.282;2023-02-16T07:40:13;95835.97;;;0.58;100.00
6464;BME280;3265;42.694;23.282;2023-02-16T07:42:43;95831.72;;;0.69;100.00
6464;BME280;3265;42.694;23.282;2023-02-16T07:45:11;95823.59;;;0.64;100.00
6464;BME280;3265;42.694;23.282;2023-02-16T07:47:41;95810.28;;;0.60;100.00
6464;BME280;3265;42.694;23.282;2023-02-16T07:50:10;95837.72;;;0.88;100.00
6464;BME280;3265;42.694;23.282;2023-02-16T07:52:40;95824.97;;;0.98;100.00
6464;BME280;3265;42.694;23.282;2023-02-16T07:55:07;95829.16;;;1.08;100.00
6464;BME280;3265;42.694;23.282;2023-02-16T07:57:34;95844.66;;;1.17;100.00
6464;BME280;3265;42.694;23.282;2023-02-16T08:00:01;95839.69;;;1.25;100.00
6464;BME280;3265;42.694;23.282;2023-02-16T08:02:32;95838.78;;;1.35;100.00
6464;BME280;3265;42.694;23.282;2023-02-16T08:05:00;95833.22;;;1.30;99.36
6464;BME280;3265;42.694;23.282;2023-02-16T08:07:29;95792.66;;;1.06;99.03
6464;BME280;3265;42.694;23.282;2023-02-16T08:09:56;95817.56;;;1.14;97.93
6464;BME280;3265;42.694;23.282;2023-02-16T08:12:24;95841.41;;;1.05;98.12
6464;BME280;3265;42.694;23.282;2023-02-16T08:14:52;95839.09;;;1.02;100.00
6464;BME280;3265;42.694;23.282;2023-02-16T08:17:22;95844.09;;;1.13;100.00
6464;BME280;3265;42.694;23.282;2023-02-16T08:19:49;95832.00;;;1.15;100.00
6464;BME280;3265;42.694;23.282;2023-02-16T08:22:17;95806.38;;;1.05;100.00
6464;BME280;3265;42.694;23.282;2023-02-16T08:24:48;95765.38;;;0.77;100.00
6464;BME280;3265;42.694;23.282;2023-02-16T08:27:15;95813.53;;;1.11;100.00
6464;BME280;3265;42.694;23.282;2023-02-16T08:29:43;95809.75;;;1.15;100.00
6464;BME280;3265;42.694;23.282;2023-02-16T08:32:11;95853.91;;;1.57;100.00
6464;BME280;3265;42.694;23.282;2023-02-16T08:34:39;95856.06;;;1.71;99.74
6464;BME280;3265;42.694;23.282;2023-02-16T08:37:06;95847.44;;;1.82;99.61
6464;BME280;3265;42.694;23.282;2023-02-16T08:39:33;95861.47;;;2.07;98.23
6464;BME280;3265;42.694;23.282;2023-02-16T08:42:01;95822.47;;;1.94;96.98
6464;BME280;3265;42.694;23.282;2023-02-16T08:44:28;95840.81;;;2.18;96.05
6464;BME280;3265;42.694;23.282;2023-02-16T08:46:58;95860.88;;;2.42;94.81
6464;BME280;3265;42.694;23.282;2023-02-16T08:49:25;95857.22;;;2.54;94.37
6464;BME280;3265;42.694;23.282;2023-02-16T08:51:54;95861.22;;;2.66;94.12
6464;BME280;3265;42.694;23.282;2023-02-16T08:54:22;95813.59;;;2.54;93.48
6464;BME280;3265;42.694;23.282;2023-02-16T08:56:51;95835.09;;;2.80;92.23
6464;BME280;3265;42.694;23.282;2023-02-16T08:59:21;95826.72;;;2.88;90.74
6464;BME280;3265;42.694;23.282;2023-02-16T09:01:48;95851.63;;;3.05;91.27
6464;BME280;3265;42.694;23.282;2023-02-16T09:04:17;95841.19;;;3.06;90.77
6464;BME280;3265;42.694;23.282;2023-02-16T09:06:45;95829.34;;;3.05;91.64
6464;BME280;3265;42.694;23.282;2023-02-16T09:09:13;95850.53;;;3.34;90.85
6464;BME280;3265;42.694;23.282;2023-02-16T09:11:40;95852.44;;;3.50;90.12
6464;BME280;3265;42.694;23.282;2023-02-16T09:14:07;95836.25;;;3.67;88.75
6464;BME280;3265;42.694;23.282;2023-02-16T09:16:36;95843.31;;;4.00;87.27
6464;BME280;3265;42.694;23.282;2023-02-16T09:19:10;95843.97;;;4.46;85.67
6464;BME280;3265;42.694;23.282;2023-02-16T09:21:38;95847.41;;;4.88;82.74
6464;BME280;3265;42.694;23.282;2023-02-16T09:24:05;95835.38;;;5.31;79.65
6464;BME280;3265;42.694;23.282;2023-02-16T09:26:34;95853.66;;;5.61;76.66
6464;BME280;3265;42.694;23.282;2023-02-16T09:29:03;95858.50;;;5.64;76.45
6464;BME280;3265;42.694;23.282;2023-02-16T09:31:32;95841.47;;;5.80;77.32
6464;BME280;3265;42.694;23.282;2023-02-16T09:34:03;95840.38;;;6.31;74.97
6464;BME280;3265;42.694;23.282;2023-02-16T09:36:31;95852.06;;;6.98;71.60
6464;BME280;3265;42.694;23.282;2023-02-16T09:38:58;95845.63;;;7.32;70.46
6464;BME280;3265;42.694;23.282;2023-02-16T09:41:31;95851.66;;;7.86;67.25
6464;BME280;3265;42.694;23.282;2023-02-16T09:44:06;95847.16;;;8.26;65.04
6464;BME280;3265;42.694;23.282;2023-02-16T09:46:36;95849.78;;;8.63;63.72
6464;BME280;3265;42.694;23.282;2023-02-16T09:49:05;95853.13;;;9.01;61.60
6464;BME280;3265;42.694;23.282;2023-02-16T09:51:38;95846.59;;;9.49;60.28
6464;BME280;3265;42.694;23.282;2023-02-16T09:54:15;95842.09;;;9.93;57.82
6464;BME280;3265;42.694;23.282;2023-02-16T09:56:50;95849.34;;;10.40;56.11
6464;BME280;3265;42.694;23.282;2023-02-16T09:59:30;95828.56;;;10.68;54.42
6464;BME280;3265;42.694;23.282;2023-02-16T10:02:21;95818.44;;;11.07;52.98
6464;BME280;3265;42.694;23.282;2023-02-16T10:05:11;95803.34;;;11.30;51.84
6464;BME280;3265;42.694;23.282;2023-02-16T10:07:48;95838.47;;;12.02;50.41
6464;BME280;3265;42.694;23.282;2023-02-16T10:10:22;95830.09;;;12.45;49.35
6464;BME280;3265;42.694;23.282;2023-02-16T10:12:53;95839.53;;;12.92;47.18
6464;BME280;3265;42.694;23.282;2023-02-16T10:15:24;95802.31;;;13.23;46.58
6464;BME280;3265;42.694;23.282;2023-02-16T10:17:54;95823.53;;;13.53;44.03
6464;BME280;3265;42.694;23.282;2023-02-16T10:20:26;95815.38;;;13.74;44.11
6464;BME280;3265;42.694;23.282;2023-02-16T10:22:59;95809.41;;;14.05;43.89
6464;BME280;3265;42.694;23.282;2023-02-16T10:25:33;95817.66;;;14.40;42.24
6464;BME280;3265;42.694;23.282;2023-02-16T10:28:13;95797.22;;;14.73;41.56
6464;BME280;3265;42.694;23.282;2023-02-16T10:30:42;95825.00;;;15.17;40.25
6464;BME280;3265;42.694;23.282;2023-02-16T10:33:15;95823.97;;;15.00;38.65
6464;BME280;3265;42.694;23.282;2023-02-16T10:35:47;95820.41;;;15.12;39.92
6464;BME280;3265;42.694;23.282;2023-02-16T10:38:18;95814.19;;;15.31;40.61
6464;BME280;3265;42.694;23.282;2023-02-16T10:40:54;95806.97;;;15.63;38.39
6464;BME280;3265;42.694;23.282;2023-02-16T10:43:35;95815.22;;;15.97;38.66
6464;BME280;3265;42.694;23.282;2023-02-16T10:46:05;95816.03;;;16.38;37.07
6464;BME280;3265;42.694;23.282;2023-02-16T10:48:32;95807.19;;;16.63;36.37
6464;BME280;3265;42.694;23.282;2023-02-16T10:51:02;95779.00;;;16.70;35.29
6464;BME280;3265;42.694;23.282;2023-02-16T10:53:38;95797.50;;;16.86;35.87
6464;BME280;3265;42.694;23.282;2023-02-16T10:56:42;95799.56;;;16.73;35.50
6464;BME280;3265;42.694;23.282;2023-02-16T10:59:15;95794.53;;;16.71;35.28
6464;BME280;3265;42.694;23.282;2023-02-16T11:01:45;95796.84;;;16.79;34.89
6464;BME280;3265;42.694;23.282;2023-02-16T11:04:33;95764.72;;;16.66;35.13
6464;BME280;3265;42.694;23.282;2023-02-16T11:07:05;95767.16;;;16.67;35.04
6464;BME280;3265;42.694;23.282;2023-02-16T11:09:33;95756.41;;;16.57;35.07
6464;BME280;3265;42.694;23.282;2023-02-16T11:12:01;95780.28;;;16.90;35.21
6464;BME280;3265;42.694;23.282;2023-02-16T11:14:29;95775.09;;;17.30;34.91
6464;BME280;3265;42.694;23.282;2023-02-16T11:17:05;95780.84;;;17.67;34.03
6464;BME280;3265;42.694;23.282;2023-02-16T11:19:34;95766.22;;;17.08;34.06
6464;BME280;3265;42.694;23.282;2023-02-16T11:22:03;95765.84;;;16.46;35.17
6464;BME280;3265;42.694;23.282;2023-02-16T11:24:32;95768.97;;;16.55;35.43
6464;BME280;3265;42.694;23.282;2023-02-16T11:27:04;95731.06;;;16.86;35.24
6464;BME280;3265;42.694;23.282;2023-02-16T11:29:32;95756.75;;;17.58;34.20
6464;BME280;3265;42.694;23.282;2023-02-16T11:32:04;95767.72;;;18.12;33.85
6464;BME280;3265;42.694;23.282;2023-02-16T11:34:34;95754.69;;;18.67;32.25
6464;BME280;3265;42.694;23.282;2023-02-16T11:37:06;95752.34;;;18.87;32.16
6464;BME280;3265;42.694;23.282;2023-02-16T11:39:38;95756.78;;;19.42;31.26
6464;BME280;3265;42.694;23.282;2023-02-16T11:42:07;95744.91;;;19.39;31.89
6464;BME280;3265;42.694;23.282;2023-02-16T11:44:37;95748.38;;;19.66;30.38
6464;BME280;3265;42.694;23.282;2023-02-16T11:47:06;95727.03;;;19.68;30.11
6464;BME280;3265;42.694;23.282;2023-02-16T11:49:36;95748.28;;;19.83;30.01
6464;BME280;3265;42.694;23.282;2023-02-16T11:52:24;95715.28;;;19.37;30.42
6464;BME280;3265;42.694;23.282;2023-02-16T11:54:52;95747.63;;;19.71;29.49
6464;BME280;3265;42.694;23.282;2023-02-16T11:57:24;95745.28;;;20.01;29.35
6464;BME280;3265;42.694;23.282;2023-02-16T11:59:51;95738.06;;;19.92;29.46
6464;BME280;3265;42.694;23.282;2023-02-16T12:02:46;95738.28;;;19.85;29.96
6464;BME280;3265;42.694;23.282;2023-02-16T12:05:35;95717.09;;;20.07;29.56
6464;BME280;3265;42.694;23.282;2023-02-16T12:11:07;95730.84;;;20.72;28.74
6464;BME280;3265;42.694;23.282;2023-02-16T12:13:41;95727.59;;;21.02;28.38
6464;BME280;3265;42.694;23.282;2023-02-16T12:16:22;95720.00;;;21.16;28.75
6464;BME280;3265;42.694;23.282;2023-02-16T12:19:00;95717.50;;;21.41;28.09
6464;BME280;3265;42.694;23.282;2023-02-16T12:21:36;95701.63;;;21.46;27.73
6464;BME280;3265;42.694;23.282;2023-02-16T12:24:16;95706.13;;;21.50;27.25
6464;BME280;3265;42.694;23.282;2023-02-16T12:26:50;95696.59;;;21.44;27.62
6464;BME280;3265;42.694;23.282;2023-02-16T12:29:35;95706.13;;;21.45;27.29
6464;BME280;3265;42.694;23.282;2023-02-16T12:32:19;95695.47;;;21.25;27.27
6464;BME280;3265;42.694;23.282;2023-02-16T12:35:06;95689.72;;;21.43;27.43
6464;BME280;3265;42.694;23.282;2023-02-16T12:37:43;95690.84;;;21.73;27.55
6464;BME280;3265;42.694;23.282;2023-02-16T12:40:27;95694.59;;;21.87;26.89
6464;BME280;3265;42.694;23.282;2023-02-16T12:43:10;95694.91;;;22.21;26.89
6464;BME280;3265;42.694;23.282;2023-02-16T12:45:45;95620.47;;;21.97;26.20
6464;BME280;3265;42.694;23.282;2023-02-16T12:48:22;95666.28;;;22.23;26.29
6464;BME280;3265;42.694;23.282;2023-02-16T12:50:53;95653.84;;;22.23;25.71
6464;BME280;3265;42.694;23.282;2023-02-16T12:53:24;95674.22;;;22.43;25.54
6464;BME280;3265;42.694;23.282;2023-02-16T12:55:58;95657.00;;;22.35;25.95
6464;BME280;3265;42.694;23.282;2023-02-16T12:58:29;95676.63;;;22.39;26.38
6464;BME280;3265;42.694;23.282;2023-02-16T13:00:59;95655.97;;;22.26;26.36
6464;BME280;3265;42.694;23.282;2023-02-16T13:03:33;95659.63;;;22.60;26.24
6464;BME280;3265;42.694;23.282;2023-02-16T13:06:10;95664.09;;;22.90;25.54
6464;BME280;3265;42.694;23.282;2023-02-16T13:08:43;95655.81;;;23.07;25.08
6464;BME280;3265;42.694;23.282;2023-02-16T13:11:21;95665.53;;;23.32;24.51
6464;BME280;3265;42.694;23.282;2023-02-16T13:13:50;95670.44;;;23.58;25.00
6464;BME280;3265;42.694;23.282;2023-02-16T13:16:23;95642.09;;;23.54;24.40
6464;BME280;3265;42.694;23.282;2023-02-16T13:18:53;95649.72;;;23.65;23.75
6464;BME280;3265;42.694;23.282;2023-02-16T13:21:47;95654.34;;;23.89;23.92
6464;BME280;3265;42.694;23.282;2023-02-16T13:24:28;95660.28;;;24.14;24.40
6464;BME280;3265;42.694;23.282;2023-02-16T13:27:10;95643.75;;;24.22;23.69
6464;BME280;3265;42.694;23.282;2023-02-16T13:29:58;95650.59;;;24.57;23.03
6464;BME280;3265;42.694;23.282;2023-02-16T13:32:55;95632.13;;;24.42;23.28
6464;BME280;3265;42.694;23.282;2023-02-16T13:35:44;95644.03;;;24.50;23.60
6464;BME280;3265;42.694;23.282;2023-02-16T13:38:34;95649.09;;;24.75;23.56
6464;BME280;3265;42.694;23.282;2023-02-16T13:41:26;95630.66;;;24.83;23.08